sensor_id;sensor_type;location;lat;lon;timestamp;P1;durP1;ratioP1;P2;durP2;ratioP2
66721;SDS011;53633;49.932;10.884;2022-10-16T00:00:34;4.60;;;1.50;;
66721;SDS011;53633;49.932;10.884;2022-10-16T00:03:02;4.57;;;1.45;;
66721;SDS011;53633;49.932;10.884;2022-10-16T00:05:29;6.10;;;1.88;;
66721;SDS011;53633;49.932;10.884;2022-10-16T00:07:56;5.40;;;1.80;;
66721;SDS011;53633;49.932;10.884;2022-10-16T00:10:24;6.78;;;1.88;;
66721;SDS011;53633;49.932;10.884;2022-10-16T00:12:50;8.03;;;1.70;;
66721;SDS011;53633;49.932;10.884;2022-10-16T00:15:17;6.10;;;1.92;;
66721;SDS011;53633;49.932;10.884;2022-10-16T00:17:43;6.03;;;2.08;;
66721;SDS011;53633;49.932;10.884;2022-10-16T00:20:10;5.80;;;1.90;;
66721;SDS011;53633;49.932;10.884;2022-10-16T00:22:37;5.47;;;2.10;;
66721;SDS011;53633;49.932;10.884;2022-10-16T00:25:03;5.03;;;2.13;;
66721;SDS011;53633;49.932;10.884;2022-10-16T00:27:32;7.78;;;2.30;;
66721;SDS011;53633;49.932;10.884;2022-10-16T00:29:59;4.57;;;2.08;;
66721;SDS011;53633;49.932;10.884;2022-10-16T00:32:25;6.78;;;2.00;;
66721;SDS011;53633;49.932;10.884;2022-10-16T00:34:53;6.05;;;1.98;;
66721;SDS011;53633;49.932;10.884;2022-10-16T00:37:19;4.27;;;1.73;;
66721;SDS011;53633;49.932;10.884;2022-10-16T00:39:46;5.20;;;1.92;;
66721;SDS011;53633;49.932;10.884;2022-10-16T00:42:14;6.03;;;1.80;;
66721;SDS011;53633;49.932;10.884;2022-10-16T00:44:45;5.63;;;1.85;;
66721;SDS011;53633;49.932;10.884;2022-10-16T00:47:15;6.85;;;1.70;;
66721;SDS011;53633;49.932;10.884;2022-10-16T00:49:46;8.37;;;2.10;;
66721;SDS011;53633;49.932;10.884;2022-10-16T00:52:14;9.48;;;2.00;;
66721;SDS011;53633;49.932;10.884;2022-10-16T00:54:40;7.47;;;1.70;;
66721;SDS011;53633;49.932;10.884;2022-10-16T00:57:07;4.78;;;1.70;;
66721;SDS011;53633;49.932;10.884;2022-10-16T00:59:35;6.50;;;1.52;;
66721;SDS011;53633;49.932;10.884;2022-10-16T01:02:06;5.67;;;2.03;;
66721;SDS011;53633;49.932;10.884;2022-10-16T01:04:34;5.30;;;1.75;;
66721;SDS011;53633;49.932;10.884;2022-10-16T01:07:05;8.63;;;1.50;;
66721;SDS011;53633;49.932;10.884;2022-10-16T01:09:37;5.90;;;1.52;;
66721;SDS011;53633;49.932;10.884;2022-10-16T01:12:14;4.60;;;1.70;;
66721;SDS011;53633;49.932;10.884;2022-10-16T01:14:45;6.37;;;1.70;;
66721;SDS011;53633;49.932;10.884;2022-10-16T01:17:17;4.85;;;1.40;;
66721;SDS011;53633;49.932;10.884;2022-10-16T01:19:51;11.80;;;1.60;;
66721;SDS011;53633;49.932;10.884;2022-10-16T01:22:36;6.30;;;1.70;;
66721;SDS011;53633;49.932;10.884;2022-10-16T01:25:09;5.90;;;1.60;;
66721;SDS011;53633;49.932;10.884;2022-10-16T01:27:43;4.67;;;1.43;;
66721;SDS011;53633;49.932;10.884;2022-10-16T01:30:13;4.63;;;1.27;;
66721;SDS011;53633;49.932;10.884;2022-10-16T01:32:45;4.15;;;1.58;;
66721;SDS011;53633;49.932;10.884;2022-10-16T01:35:18;7.75;;;1.60;;
66721;SDS011;53633;49.932;10.884;2022-10-16T01:37:48;8.80;;;1.60;;
66721;SDS011;53633;49.932;10.884;2022-10-16T01:40:19;4.77;;;1.70;;
66721;SDS011;53633;49.932;10.884;2022-10-16T01:42:52;4.18;;;1.25;;
66721;SDS011;53633;49.932;10.884;2022-10-16T01:45:22;6.25;;;1.60;;
66721;SDS011;53633;49.932;10.884;2022-10-16T01:47:49;5.47;;;1.55;;
66721;SDS011;53633;49.932;10.884;2022-10-16T01:50:18;3.50;;;1.30;;
66721;SDS011;53633;49.932;10.884;2022-10-16T01:52:46;5.53;;;1.90;;
66721;SDS011;53633;49.932;10.884;2022-10-16T01:55:17;5.78;;;1.60;;
66721;SDS011;53633;49.932;10.884;2022-10-16T01:57:48;5.30;;;1.30;;
66721;SDS011;53633;49.932;10.884;2022-10-16T02:00:17;4.65;;;1.30;;
66721;SDS011;53633;49.932;10.884;2022-10-16T02:02:47;3.78;;;1.13;;
66721;SDS011;53633;49.932;10.884;2022-10-16T02:05:18;5.07;;;1.43;;
66721;SDS011;53633;49.932;10.884;2022-10-16T02:07:49;3.78;;;1.30;;
66721;SDS011;53633;49.932;10.884;2022-10-16T02:10:16;3.15;;;1.20;;
66721;SDS011;53633;49.932;10.884;2022-10-16T02:12:44;4.80;;;1.42;;
66721;SDS011;53633;49.932;10.884;2022-10-16T02:15:13;3.75;;;1.40;;
66721;SDS011;53633;49.932;10.884;2022-10-16T02:17:41;5.00;;;1.47;;
66721;SDS011;53633;49.932;10.884;2022-10-16T02:20:08;5.88;;;1.77;;
66721;SDS011;53633;49.932;10.884;2022-10-16T02:22:36;4.93;;;1.85;;
66721;SDS011;53633;49.932;10.884;2022-10-16T02:25:07;4.22;;;1.48;;
66721;SDS011;53633;49.932;10.884;2022-10-16T02:27:38;4.32;;;1.48;;
66721;SDS011;53633;49.932;10.884;2022-10-16T02:30:11;5.47;;;1.40;;
66721;SDS011;53633;49.932;10.884;2022-10-16T02:32:44;5.95;;;1.40;;
66721;SDS011;53633;49.932;10.884;2022-10-16T02:35:14;4.95;;;1.73;;
66721;SDS011;53633;49.932;10.884;2022-10-16T02:37:43;10.88;;;1.73;;
66721;SDS011;53633;49.932;10.884;2022-10-16T02:40:11;5.05;;;1.27;;
66721;SDS011;53633;49.932;10.884;2022-10-16T02:42:39;4.03;;;1.20;;
66721;SDS011;53633;49.932;10.884;2022-10-16T02:45:07;4.47;;;1.15;;
66721;SDS011;53633;49.932;10.884;2022-10-16T02:47:35;4.97;;;1.60;;
66721;SDS011;53633;49.932;10.884;2022-10-16T02:50:03;4.22;;;1.38;;
66721;SDS011;53633;49.932;10.884;2022-10-16T02:52:30;4.10;;;1.20;;
66721;SDS011;53633;49.932;10.884;2022-10-16T02:54:57;6.63;;;1.80;;
66721;SDS011;53633;49.932;10.884;2022-10-16T02:57:23;4.80;;;1.50;;
66721;SDS011;53633;49.932;10.884;2022-10-16T02:59:51;6.57;;;1.50;;
66721;SDS011;53633;49.932;10.884;2022-10-16T03:02:17;5.28;;;1.35;;
66721;SDS011;53633;49.932;10.884;2022-10-16T03:04:44;3.83;;;1.40;;
66721;SDS011;53633;49.932;10.884;2022-10-16T03:07:12;6.60;;;1.30;;
66721;SDS011;53633;49.932;10.884;2022-10-16T03:09:38;4.15;;;1.27;;
66721;SDS011;53633;49.932;10.884;2022-10-16T03:12:05;8.45;;;1.50;;
66721;SDS011;53633;49.932;10.884;2022-10-16T03:14:31;8.98;;;1.40;;
66721;SDS011;53633;49.932;10.884;2022-10-16T03:16:58;4.22;;;1.27;;
66721;SDS011;53633;49.932;10.884;2022-10-16T03:19:25;5.03;;;1.30;;
66721;SDS011;53633;49.932;10.884;2022-10-16T03:21:51;7.28;;;1.65;;
66721;SDS011;53633;49.932;10.884;2022-10-16T03:24:19;4.22;;;1.25;;
66721;SDS011;53633;49.932;10.884;2022-10-16T03:26:46;5.15;;;1.55;;
66721;SDS011;53633;49.932;10.884;2022-10-16T03:29:14;5.07;;;1.70;;
66721;SDS011;53633;49.932;10.884;2022-10-16T03:31:41;4.47;;;1.30;;
66721;SDS011;53633;49.932;10.884;2022-10-16T03:34:07;4.30;;;1.10;;
66721;SDS011;53633;49.932;10.884;2022-10-16T03:36:34;6.68;;;1.48;;
66721;SDS011;53633;49.932;10.884;2022-10-16T03:39:05;7.82;;;1.60;;
66721;SDS011;53633;49.932;10.884;2022-10-16T03:41:33;4.80;;;1.60;;
66721;SDS011;53633;49.932;10.884;2022-10-16T03:44:00;5.77;;;1.70;;
66721;SDS011;53633;49.932;10.884;2022-10-16T03:46:26;4.68;;;1.63;;
66721;SDS011;53633;49.932;10.884;2022-10-16T03:48:54;5.05;;;1.48;;
66721;SDS011;53633;49.932;10.884;2022-10-16T03:51:21;4.30;;;1.40;;
66721;SDS011;53633;49.932;10.884;2022-10-16T03:53:48;4.05;;;1.48;;
66721;SDS011;53633;49.932;10.884;2022-10-16T03:56:14;5.10;;;1.70;;
66721;SDS011;53633;49.932;10.884;2022-10-16T03:58:42;4.25;;;1.40;;
66721;SDS011;53633;49.932;10.884;2022-10-16T04:01:09;4.38;;;1.42;;
66721;SDS011;53633;49.932;10.884;2022-10-16T04:03:35;7.03;;;1.65;;
66721;SDS011;53633;49.932;10.884;2022-10-16T04:06:02;4.80;;;1.38;;
66721;SDS011;53633;49.932;10.884;2022-10-16T04:08:29;3.63;;;1.13;;
66721;SDS011;53633;49.932;10.884;2022-10-16T04:10:55;4.35;;;1.20;;
66721;SDS011;53633;49.932;10.884;2022-10-16T04:13:22;4.68;;;1.50;;
66721;SDS011;53633;49.932;10.884;2022-10-16T04:15:49;6.05;;;1.33;;
66721;SDS011;53633;49.932;10.884;2022-10-16T04:18:16;3.60;;;1.20;;
66721;SDS011;53633;49.932;10.884;2022-10-16T04:20:43;4.33;;;1.40;;
66721;SDS011;53633;49.932;10.884;2022-10-16T04:23:09;5.55;;;1.50;;
66721;SDS011;53633;49.932;10.884;2022-10-16T04:25:36;4.95;;;1.45;;
66721;SDS011;53633;49.932;10.884;2022-10-16T04:28:02;6.35;;;1.77;;
66721;SDS011;53633;49.932;10.884;2022-10-16T04:30:29;7.78;;;1.83;;
66721;SDS011;53633;49.932;10.884;2022-10-16T04:32:57;5.73;;;1.43;;
66721;SDS011;53633;49.932;10.884;2022-10-16T04:35:23;7.50;;;1.80;;
66721;SDS011;53633;49.932;10.884;2022-10-16T04:37:50;5.68;;;1.63;;
66721;SDS011;53633;49.932;10.884;2022-10-16T04:40:17;4.90;;;1.70;;
66721;SDS011;53633;49.932;10.884;2022-10-16T04:42:43;6.13;;;1.88;;
66721;SDS011;53633;49.932;10.884;2022-10-16T04:45:10;5.50;;;1.70;;
66721;SDS011;53633;49.932;10.884;2022-10-16T04:47:42;5.10;;;1.40;;
66721;SDS011;53633;49.932;10.884;2022-10-16T04:50:10;9.52;;;1.60;;
66721;SDS011;53633;49.932;10.884;2022-10-16T04:52:37;6.43;;;1.50;;
66721;SDS011;53633;49.932;10.884;2022-10-16T04:55:04;5.25;;;1.83;;
66721;SDS011;53633;49.932;10.884;2022-10-16T04:57:31;5.17;;;1.60;;
66721;SDS011;53633;49.932;10.884;2022-10-16T04:59:57;7.07;;;1.67;;
66721;SDS011;53633;49.932;10.884;2022-10-16T05:02:24;6.57;;;2.20;;
66721;SDS011;53633;49.932;10.884;2022-10-16T05:04:51;8.32;;;2.08;;
66721;SDS011;53633;49.932;10.884;2022-10-16T05:07:19;4.80;;;1.70;;
66721;SDS011;53633;49.932;10.884;2022-10-16T05:09:46;7.43;;;2.07;;
66721;SDS011;53633;49.932;10.884;2022-10-16T05:12:12;4.82;;;1.60;;
66721;SDS011;53633;49.932;10.884;2022-10-16T05:14:39;6.85;;;2.13;;
66721;SDS011;53633;49.932;10.884;2022-10-16T05:17:06;7.80;;;2.08;;
66721;SDS011;53633;49.932;10.884;2022-10-16T05:19:32;6.85;;;1.95;;
66721;SDS011;53633;49.932;10.884;2022-10-16T05:21:59;5.00;;;2.00;;
66721;SDS011;53633;49.932;10.884;2022-10-16T05:24:27;6.18;;;1.73;;
66721;SDS011;53633;49.932;10.884;2022-10-16T05:26:53;6.43;;;2.30;;
66721;SDS011;53633;49.932;10.884;2022-10-16T05:29:20;5.20;;;2.10;;
66721;SDS011;53633;49.932;10.884;2022-10-16T05:31:49;4.75;;;1.90;;
66721;SDS011;53633;49.932;10.884;2022-10-16T05:34:16;4.73;;;1.67;;
66721;SDS011;53633;49.932;10.884;2022-10-16T05:36:43;5.68;;;2.00;;
66721;SDS011;53633;49.932;10.884;2022-10-16T05:39:09;9.48;;;3.20;;
66721;SDS011;53633;49.932;10.884;2022-10-16T05:41:37;5.20;;;1.80;;
66721;SDS011;53633;49.932;10.884;2022-10-16T05:44:04;4.93;;;1.95;;
66721;SDS011;53633;49.932;10.884;2022-10-16T05:46:30;6.87;;;1.80;;
66721;SDS011;53633;49.932;10.884;2022-10-16T05:48:57;7.90;;;2.20;;
66721;SDS011;53633;49.932;10.884;2022-10-16T05:51:24;4.75;;;1.73;;
66721;SDS011;53633;49.932;10.884;2022-10-16T05:53:51;7.05;;;2.17;;
66721;SDS011;53633;49.932;10.884;2022-10-16T05:56:18;5.72;;;2.03;;
66721;SDS011;53633;49.932;10.884;2022-10-16T05:58:46;9.90;;;2.73;;
66721;SDS011;53633;49.932;10.884;2022-10-16T06:01:13;6.07;;;1.85;;
66721;SDS011;53633;49.932;10.884;2022-10-16T06:03:41;8.63;;;1.90;;
66721;SDS011;53633;49.932;10.884;2022-10-16T06:06:09;8.05;;;2.10;;
66721;SDS011;53633;49.932;10.884;2022-10-16T06:08:38;8.48;;;2.17;;
66721;SDS011;53633;49.932;10.884;2022-10-16T06:11:06;7.97;;;2.30;;
66721;SDS011;53633;49.932;10.884;2022-10-16T06:13:33;6.53;;;2.40;;
66721;SDS011;53633;49.932;10.884;2022-10-16T06:16:02;5.75;;;2.10;;
66721;SDS011;53633;49.932;10.884;2022-10-16T06:18:29;7.70;;;2.03;;
66721;SDS011;53633;49.932;10.884;2022-10-16T06:20:56;5.43;;;2.00;;
66721;SDS011;53633;49.932;10.884;2022-10-16T06:23:23;6.70;;;2.13;;
66721;SDS011;53633;49.932;10.884;2022-10-16T06:25:50;5.05;;;1.80;;
66721;SDS011;53633;49.932;10.884;2022-10-16T06:28:17;4.75;;;1.83;;
66721;SDS011;53633;49.932;10.884;2022-10-16T06:30:44;5.28;;;1.90;;
66721;SDS011;53633;49.932;10.884;2022-10-16T06:33:12;5.63;;;2.17;;
66721;SDS011;53633;49.932;10.884;2022-10-16T06:35:39;4.77;;;1.30;;
66721;SDS011;53633;49.932;10.884;2022-10-16T06:38:05;5.82;;;2.15;;
66721;SDS011;53633;49.932;10.884;2022-10-16T06:40:32;8.63;;;2.85;;
66721;SDS011;53633;49.932;10.884;2022-10-16T06:42:59;8.57;;;2.75;;
66721;SDS011;53633;49.932;10.884;2022-10-16T06:45:25;12.00;;;3.70;;
66721;SDS011;53633;49.932;10.884;2022-10-16T06:47:52;9.13;;;3.40;;
66721;SDS011;53633;49.932;10.884;2022-10-16T06:50:20;7.57;;;2.40;;
66721;SDS011;53633;49.932;10.884;2022-10-16T06:52:46;8.10;;;3.38;;
66721;SDS011;53633;49.932;10.884;2022-10-16T06:55:13;7.65;;;2.80;;
66721;SDS011;53633;49.932;10.884;2022-10-16T06:57:40;11.75;;;3.20;;
66721;SDS011;53633;49.932;10.884;2022-10-16T07:00:06;8.00;;;3.07;;
66721;SDS011;53633;49.932;10.884;2022-10-16T07:02:33;8.77;;;3.00;;
66721;SDS011;53633;49.932;10.884;2022-10-16T07:05:00;9.18;;;2.75;;
66721;SDS011;53633;49.932;10.884;2022-10-16T07:07:28;6.63;;;2.42;;
66721;SDS011;53633;49.932;10.884;2022-10-16T07:09:54;6.97;;;2.95;;
66721;SDS011;53633;49.932;10.884;2022-10-16T07:12:21;7.70;;;2.93;;
66721;SDS011;53633;49.932;10.884;2022-10-16T07:14:48;9.27;;;3.38;;
66721;SDS011;53633;49.932;10.884;2022-10-16T07:17:15;8.75;;;2.45;;
66721;SDS011;53633;49.932;10.884;2022-10-16T07:19:42;5.82;;;2.28;;
66721;SDS011;53633;49.932;10.884;2022-10-16T07:22:08;5.75;;;2.38;;
66721;SDS011;53633;49.932;10.884;2022-10-16T07:24:36;6.13;;;2.60;;
66721;SDS011;53633;49.932;10.884;2022-10-16T07:27:03;8.15;;;2.28;;
66721;SDS011;53633;49.932;10.884;2022-10-16T07:29:29;5.90;;;2.33;;
66721;SDS011;53633;49.932;10.884;2022-10-16T07:31:56;6.10;;;2.65;;
66721;SDS011;53633;49.932;10.884;2022-10-16T07:34:22;6.82;;;2.28;;
66721;SDS011;53633;49.932;10.884;2022-10-16T07:36:49;8.00;;;2.20;;
66721;SDS011;53633;49.932;10.884;2022-10-16T07:39:16;6.07;;;2.50;;
66721;SDS011;53633;49.932;10.884;2022-10-16T07:41:45;5.85;;;2.17;;
66721;SDS011;53633;49.932;10.884;2022-10-16T07:44:11;5.57;;;2.10;;
66721;SDS011;53633;49.932;10.884;2022-10-16T07:46:38;4.93;;;1.92;;
66721;SDS011;53633;49.932;10.884;2022-10-16T07:49:04;5.97;;;2.07;;
66721;SDS011;53633;49.932;10.884;2022-10-16T07:51:31;5.10;;;1.92;;
66721;SDS011;53633;49.932;10.884;2022-10-16T07:53:58;7.35;;;2.20;;
66721;SDS011;53633;49.932;10.884;2022-10-16T07:56:24;7.13;;;2.58;;
66721;SDS011;53633;49.932;10.884;2022-10-16T07:58:52;6.32;;;2.22;;
66721;SDS011;53633;49.932;10.884;2022-10-16T08:01:19;5.00;;;2.00;;
66721;SDS011;53633;49.932;10.884;2022-10-16T08:03:47;5.20;;;1.73;;
66721;SDS011;53633;49.932;10.884;2022-10-16T08:06:15;5.15;;;1.70;;
66721;SDS011;53633;49.932;10.884;2022-10-16T08:08:42;4.32;;;1.77;;
66721;SDS011;53633;49.932;10.884;2022-10-16T08:11:09;8.65;;;2.15;;
66721;SDS011;53633;49.932;10.884;2022-10-16T08:13:36;4.80;;;2.00;;
66721;SDS011;53633;49.932;10.884;2022-10-16T08:16:04;5.70;;;2.17;;
66721;SDS011;53633;49.932;10.884;2022-10-16T08:18:31;5.88;;;2.00;;
66721;SDS011;53633;49.932;10.884;2022-10-16T08:20:58;5.55;;;2.53;;
66721;SDS011;53633;49.932;10.884;2022-10-16T08:23:26;7.38;;;2.10;;
66721;SDS011;53633;49.932;10.884;2022-10-16T08:25:53;4.63;;;2.00;;
66721;SDS011;53633;49.932;10.884;2022-10-16T08:28:20;8.02;;;2.30;;
66721;SDS011;53633;49.932;10.884;2022-10-16T08:30:48;4.75;;;2.03;;
66721;SDS011;53633;49.932;10.884;2022-10-16T08:33:16;7.95;;;2.38;;
66721;SDS011;53633;49.932;10.884;2022-10-16T08:35:42;4.57;;;2.00;;
66721;SDS011;53633;49.932;10.884;2022-10-16T08:38:09;6.60;;;2.20;;
66721;SDS011;53633;49.932;10.884;2022-10-16T08:40:36;6.25;;;1.88;;
66721;SDS011;53633;49.932;10.884;2022-10-16T08:43:10;4.45;;;1.73;;
66721;SDS011;53633;49.932;10.884;2022-10-16T08:48:59;6.88;;;2.20;;
66721;SDS011;53633;49.932;10.884;2022-10-16T08:51:26;5.27;;;2.23;;
66721;SDS011;53633;49.932;10.884;2022-10-16T08:53:56;6.20;;;2.13;;
66721;SDS011;53633;49.932;10.884;2022-10-16T08:56:23;7.65;;;2.35;;
66721;SDS011;53633;49.932;10.884;2022-10-16T08:58:52;6.68;;;2.50;;
66721;SDS011;53633;49.932;10.884;2022-10-16T09:01:29;8.23;;;2.20;;
66721;SDS011;53633;49.932;10.884;2022-10-16T09:04:26;7.70;;;2.50;;
66721;SDS011;53633;49.932;10.884;2022-10-16T09:07:23;6.75;;;2.25;;
66721;SDS011;53633;49.932;10.884;2022-10-16T09:09:57;6.68;;;1.80;;
66721;SDS011;53633;49.932;10.884;2022-10-16T09:12:43;4.70;;;2.13;;
66721;SDS011;53633;49.932;10.884;2022-10-16T09:15:21;6.28;;;2.22;;
66721;SDS011;53633;49.932;10.884;2022-10-16T09:17:56;6.53;;;1.93;;
66721;SDS011;53633;49.932;10.884;2022-10-16T09:20:36;7.28;;;2.33;;
66721;SDS011;53633;49.932;10.884;2022-10-16T09:23:16;7.38;;;2.50;;
66721;SDS011;53633;49.932;10.884;2022-10-16T09:25:46;8.32;;;2.60;;
66721;SDS011;53633;49.932;10.884;2022-10-16T09:28:13;8.23;;;2.05;;
66721;SDS011;53633;49.932;10.884;2022-10-16T09:30:40;6.17;;;2.00;;
66721;SDS011;53633;49.932;10.884;2022-10-16T09:33:07;8.38;;;2.15;;
66721;SDS011;53633;49.932;10.884;2022-10-16T09:35:38;8.05;;;2.00;;
66721;SDS011;53633;49.932;10.884;2022-10-16T09:38:06;6.47;;;2.03;;
66721;SDS011;53633;49.932;10.884;2022-10-16T09:40:34;6.93;;;2.53;;
66721;SDS011;53633;49.932;10.884;2022-10-16T09:43:05;6.43;;;2.87;;
66721;SDS011;53633;49.932;10.884;2022-10-16T09:45:42;5.88;;;2.17;;
66721;SDS011;53633;49.932;10.884;2022-10-16T09:48:10;5.88;;;2.08;;
66721;SDS011;53633;49.932;10.884;2022-10-16T09:50:39;6.53;;;2.42;;
66721;SDS011;53633;49.932;10.884;2022-10-16T09:53:08;6.53;;;2.20;;
66721;SDS011;53633;49.932;10.884;2022-10-16T09:55:47;8.03;;;2.63;;
66721;SDS011;53633;49.932;10.884;2022-10-16T09:58:14;7.60;;;2.30;;
66721;SDS011;53633;49.932;10.884;2022-10-16T10:00:41;7.10;;;2.70;;
66721;SDS011;53633;49.932;10.884;2022-10-16T10:03:10;8.48;;;3.00;;
66721;SDS011;53633;49.932;10.884;2022-10-16T10:05:37;9.93;;;3.63;;
66721;SDS011;53633;49.932;10.884;2022-10-16T10:08:12;7.50;;;2.77;;
66721;SDS011;53633;49.932;10.884;2022-10-16T10:10:43;6.68;;;2.20;;
66721;SDS011;53633;49.932;10.884;2022-10-16T10:13:17;4.65;;;1.85;;
66721;SDS011;53633;49.932;10.884;2022-10-16T10:15:45;4.65;;;2.15;;
66721;SDS011;53633;49.932;10.884;2022-10-16T10:18:15;5.28;;;2.22;;
66721;SDS011;53633;49.932;10.884;2022-10-16T10:20:45;5.17;;;2.40;;
66721;SDS011;53633;49.932;10.884;2022-10-16T10:23:19;7.35;;;2.05;;
66721;SDS011;53633;49.932;10.884;2022-10-16T10:25:49;6.18;;;1.98;;
66721;SDS011;53633;49.932;10.884;2022-10-16T10:31:20;7.47;;;2.08;;
66721;SDS011;53633;49.932;10.884;2022-10-16T10:33:53;5.17;;;2.17;;
66721;SDS011;53633;49.932;10.884;2022-10-16T10:36:30;6.80;;;2.30;;
66721;SDS011;53633;49.932;10.884;2022-10-16T10:39:00;7.35;;;2.60;;
66721;SDS011;53633;49.932;10.884;2022-10-16T10:41:48;5.50;;;2.05;;
66721;SDS011;53633;49.932;10.884;2022-10-16T10:44:32;4.20;;;1.80;;
66721;SDS011;53633;49.932;10.884;2022-10-16T10:47:07;5.77;;;1.90;;
66721;SDS011;53633;49.932;10.884;2022-10-16T10:49:46;7.70;;;2.20;;
66721;SDS011;53633;49.932;10.884;2022-10-16T10:55:16;9.25;;;2.10;;
66721;SDS011;53633;49.932;10.884;2022-10-16T10:57:54;5.38;;;1.92;;
66721;SDS011;53633;49.932;10.884;2022-10-16T11:00:34;5.50;;;2.10;;
66721;SDS011;53633;49.932;10.884;2022-10-16T11:03:13;5.20;;;1.67;;
66721;SDS011;53633;49.932;10.884;2022-10-16T11:05:54;7.43;;;2.08;;
66721;SDS011;53633;49.932;10.884;2022-10-16T11:08:26;4.35;;;1.80;;
66721;SDS011;53633;49.932;10.884;2022-10-16T11:10:58;4.38;;;1.63;;
66721;SDS011;53633;49.932;10.884;2022-10-16T11:13:29;8.67;;;2.10;;
66721;SDS011;53633;49.932;10.884;2022-10-16T11:16:01;5.75;;;2.10;;
66721;SDS011;53633;49.932;10.884;2022-10-16T11:18:33;7.55;;;2.08;;
66721;SDS011;53633;49.932;10.884;2022-10-16T11:21:11;4.22;;;1.58;;
66721;SDS011;53633;49.932;10.884;2022-10-16T11:23:42;5.40;;;1.90;;
66721;SDS011;53633;49.932;10.884;2022-10-16T11:26:16;6.70;;;2.20;;
66721;SDS011;53633;49.932;10.884;2022-10-16T11:28:47;5.70;;;2.13;;
66721;SDS011;53633;49.932;10.884;2022-10-16T11:31:16;6.38;;;2.20;;
66721;SDS011;53633;49.932;10.884;2022-10-16T11:33:46;7.93;;;3.10;;
66721;SDS011;53633;49.932;10.884;2022-10-16T11:36:19;7.90;;;2.30;;
66721;SDS011;53633;49.932;10.884;2022-10-16T11:38:52;4.67;;;2.23;;
66721;SDS011;53633;49.932;10.884;2022-10-16T11:41:24;8.27;;;2.42;;
66721;SDS011;53633;49.932;10.884;2022-10-16T11:43:58;7.70;;;2.22;;
66721;SDS011;53633;49.932;10.884;2022-10-16T11:46:40;6.05;;;2.65;;
66721;SDS011;53633;49.932;10.884;2022-10-16T11:49:34;7.13;;;2.63;;
66721;SDS011;53633;49.932;10.884;2022-10-16T11:52:05;7.70;;;3.10;;
66721;SDS011;53633;49.932;10.884;2022-10-16T11:54:41;9.05;;;3.38;;
66721;SDS011;53633;49.932;10.884;2022-10-16T11:57:15;7.13;;;3.70;;
66721;SDS011;53633;49.932;10.884;2022-10-16T11:59:45;8.00;;;4.03;;
66721;SDS011;53633;49.932;10.884;2022-10-16T12:02:27;6.68;;;3.35;;
66721;SDS011;53633;49.932;10.884;2022-10-16T12:05:02;6.50;;;3.03;;
66721;SDS011;53633;49.932;10.884;2022-10-16T12:07:38;8.65;;;4.25;;
66721;SDS011;53633;49.932;10.884;2022-10-16T12:10:20;7.13;;;3.35;;
66721;SDS011;53633;49.932;10.884;2022-10-16T12:12:53;9.43;;;4.47;;
66721;SDS011;53633;49.932;10.884;2022-10-16T12:15:22;12.68;;;4.88;;
66721;SDS011;53633;49.932;10.884;2022-10-16T12:18:20;8.00;;;3.53;;
66721;SDS011;53633;49.932;10.884;2022-10-16T12:20:53;9.57;;;3.97;;
66721;SDS011;53633;49.932;10.884;2022-10-16T12:23:21;7.43;;;3.10;;
66721;SDS011;53633;49.932;10.884;2022-10-16T12:25:54;6.22;;;2.80;;
66721;SDS011;53633;49.932;10.884;2022-10-16T12:28:22;5.97;;;2.67;;
66721;SDS011;53633;49.932;10.884;2022-10-16T12:30:53;6.47;;;2.47;;
66721;SDS011;53633;49.932;10.884;2022-10-16T12:33:22;6.93;;;2.75;;
66721;SDS011;53633;49.932;10.884;2022-10-16T12:35:51;6.78;;;3.00;;
66721;SDS011;53633;49.932;10.884;2022-10-16T12:38:20;7.22;;;2.40;;
66721;SDS011;53633;49.932;10.884;2022-10-16T12:40:56;5.53;;;2.50;;
66721;SDS011;53633;49.932;10.884;2022-10-16T12:46:26;9.57;;;2.58;;
66721;SDS011;53633;49.932;10.884;2022-10-16T12:49:20;5.78;;;2.50;;
66721;SDS011;53633;49.932;10.884;2022-10-16T12:51:49;7.50;;;2.38;;
66721;SDS011;53633;49.932;10.884;2022-10-16T12:54:16;6.47;;;3.00;;
66721;SDS011;53633;49.932;10.884;2022-10-16T12:56:49;5.53;;;2.87;;
66721;SDS011;53633;49.932;10.884;2022-10-16T12:59:25;7.28;;;2.50;;
66721;SDS011;53633;49.932;10.884;2022-10-16T13:02:11;6.20;;;2.17;;
66721;SDS011;53633;49.932;10.884;2022-10-16T13:05:00;7.55;;;2.20;;
66721;SDS011;53633;49.932;10.884;2022-10-16T13:07:42;4.78;;;2.20;;
66721;SDS011;53633;49.932;10.884;2022-10-16T13:10:19;6.77;;;2.10;;
66721;SDS011;53633;49.932;10.884;2022-10-16T13:13:04;6.90;;;3.17;;
66721;SDS011;53633;49.932;10.884;2022-10-16T13:15:41;6.60;;;2.53;;
66721;SDS011;53633;49.932;10.884;2022-10-16T13:18:27;6.30;;;2.25;;
66721;SDS011;53633;49.932;10.884;2022-10-16T13:21:04;5.20;;;2.40;;
66721;SDS011;53633;49.932;10.884;2022-10-16T13:23:38;8.57;;;2.73;;
66721;SDS011;53633;49.932;10.884;2022-10-16T13:26:16;7.40;;;2.80;;
66721;SDS011;53633;49.932;10.884;2022-10-16T13:28:51;8.82;;;2.30;;
66721;SDS011;53633;49.932;10.884;2022-10-16T13:31:18;5.72;;;2.42;;
66721;SDS011;53633;49.932;10.884;2022-10-16T13:33:48;5.40;;;2.25;;
66721;SDS011;53633;49.932;10.884;2022-10-16T13:36:18;7.37;;;2.83;;
66721;SDS011;53633;49.932;10.884;2022-10-16T13:38:47;6.45;;;2.80;;
66721;SDS011;53633;49.932;10.884;2022-10-16T13:41:15;5.50;;;2.17;;
66721;SDS011;53633;49.932;10.884;2022-10-16T13:43:43;6.15;;;2.00;;
66721;SDS011;53633;49.932;10.884;2022-10-16T13:46:14;5.47;;;2.15;;
66721;SDS011;53633;49.932;10.884;2022-10-16T13:48:42;6.03;;;2.30;;
66721;SDS011;53633;49.932;10.884;2022-10-16T13:51:12;6.35;;;2.50;;
66721;SDS011;53633;49.932;10.884;2022-10-16T13:53:40;6.05;;;2.33;;
66721;SDS011;53633;49.932;10.884;2022-10-16T13:56:09;6.22;;;2.22;;
66721;SDS011;53633;49.932;10.884;2022-10-16T13:58:37;6.18;;;2.10;;
66721;SDS011;53633;49.932;10.884;2022-10-16T14:01:05;4.73;;;2.10;;
66721;SDS011;53633;49.932;10.884;2022-10-16T14:03:39;6.18;;;1.90;;
66721;SDS011;53633;49.932;10.884;2022-10-16T14:06:11;5.82;;;2.20;;
66721;SDS011;53633;49.932;10.884;2022-10-16T14:08:40;5.60;;;2.22;;
66721;SDS011;53633;49.932;10.884;2022-10-16T14:11:09;8.27;;;2.28;;
66721;SDS011;53633;49.932;10.884;2022-10-16T14:13:37;5.17;;;2.50;;
66721;SDS011;53633;49.932;10.884;2022-10-16T14:16:07;7.72;;;2.35;;
66721;SDS011;53633;49.932;10.884;2022-10-16T14:18:35;7.15;;;2.30;;
66721;SDS011;53633;49.932;10.884;2022-10-16T14:21:06;5.38;;;2.22;;
66721;SDS011;53633;49.932;10.884;2022-10-16T14:23:38;4.93;;;2.17;;
66721;SDS011;53633;49.932;10.884;2022-10-16T14:26:12;6.43;;;2.40;;
66721;SDS011;53633;49.932;10.884;2022-10-16T14:28:40;5.55;;;2.53;;
66721;SDS011;53633;49.932;10.884;2022-10-16T14:31:21;5.30;;;2.10;;
66721;SDS011;53633;49.932;10.884;2022-10-16T14:33:52;8.63;;;2.65;;
66721;SDS011;53633;49.932;10.884;2022-10-16T14:36:20;5.53;;;2.30;;
66721;SDS011;53633;49.932;10.884;2022-10-16T14:38:49;5.43;;;2.60;;
66721;SDS011;53633;49.932;10.884;2022-10-16T14:41:20;5.93;;;2.40;;
66721;SDS011;53633;49.932;10.884;2022-10-16T14:43:49;7.20;;;2.30;;
66721;SDS011;53633;49.932;10.884;2022-10-16T14:46:19;5.20;;;1.92;;
66721;SDS011;53633;49.932;10.884;2022-10-16T14:48:48;4.50;;;1.92;;
66721;SDS011;53633;49.932;10.884;2022-10-16T14:51:17;5.67;;;2.17;;
66721;SDS011;53633;49.932;10.884;2022-10-16T14:53:46;7.18;;;2.22;;
66721;SDS011;53633;49.932;10.884;2022-10-16T14:56:14;5.65;;;2.10;;
66721;SDS011;53633;49.932;10.884;2022-10-16T14:58:44;5.22;;;2.28;;
66721;SDS011;53633;49.932;10.884;2022-10-16T15:01:10;6.05;;;2.10;;